createdAt,value
2023-03-29T00:04:39.261Z,101537.22
2023-03-29T00:10:03.118Z,101534.58
2023-03-29T00:15:27.434Z,101537.23
2023-03-29T00:20:49.976Z,101534.64
2023-03-29T00:26:12.868Z,101529.40
2023-03-29T00:31:36.787Z,101534.63
2023-03-29T00:37:00.326Z,101538.98
2023-03-29T00:42:27.631Z,101537.25
2023-03-29T00:48:08.975Z,101520.65
2023-03-29T00:53:51.167Z,101520.64
2023-03-29T00:59:18.580Z,101515.42
2023-03-29T01:04:51.707Z,101513.68
2023-03-29T01:10:31.344Z,101511.91
2023-03-29T01:15:56.172Z,101514.53
2023-03-29T01:21:29.750Z,101512.76
2023-03-29T01:27:06.848Z,101511.02
2023-03-29T01:32:48.276Z,101502.28
2023-03-29T01:38:21.775Z,101506.66
2023-03-29T01:43:57.561Z,101504.03
2023-03-29T01:49:36.893Z,101503.16
2023-03-29T01:55:07.045Z,101500.54
2023-03-29T02:00:34.392Z,101494.44
2023-03-29T02:06:07.914Z,101486.58
2023-03-29T02:11:31.494Z,101496.20
2023-03-29T02:16:55.076Z,101493.56
2023-03-29T02:22:31.142Z,101498.80
2023-03-29T02:27:54.239Z,101501.44
2023-03-29T02:33:27.259Z,101495.30
2023-03-29T02:38:51.059Z,101506.66
2023-03-29T02:44:15.151Z,101498.80
2023-03-29T02:49:38.024Z,101504.03
2023-03-29T02:55:03.487Z,101509.25
2023-03-29T03:00:29.051Z,101504.90
2023-03-29T03:05:53.368Z,101502.26
2023-03-29T03:11:15.894Z,101500.52
2023-03-29T03:16:39.261Z,101497.02
2023-03-29T03:22:02.057Z,101495.28
2023-03-29T03:27:24.478Z,101491.77
2023-03-29T03:32:48.205Z,101486.50
2023-03-29T03:38:11.023Z,101490.83
2023-03-29T03:43:33.894Z,101488.24
2023-03-29T03:48:58.016Z,101488.22
2023-03-29T03:54:20.502Z,101483.73
2023-03-29T03:59:43.014Z,101481.84
2023-03-29T04:05:05.278Z,101480.86
2023-03-29T04:10:28.662Z,101478.98
2023-03-29T04:15:59.404Z,101479.69
2023-03-29T04:21:21.403Z,101471.78
2023-03-29T04:26:43.908Z,101475.20
2023-03-29T04:32:06.930Z,101469.01
2023-03-29T04:37:30.159Z,101467.26
2023-03-29T04:42:54.689Z,101465.62
2023-03-29T04:48:17.898Z,101471.72
2023-03-29T04:53:41.726Z,101465.64
2023-03-29T04:59:04.818Z,101470.94
2023-03-29T05:04:28.830Z,101464.91
2023-03-29T05:09:52.706Z,101455.39
2023-03-29T05:15:17.173Z,101462.42
2023-03-29T05:20:40.968Z,101452.05
2023-03-29T05:26:05.123Z,101459.18
2023-03-29T05:31:29.061Z,101452.27
2023-03-29T05:36:52.172Z,101456.75
2023-03-29T05:42:17.405Z,101461.23
2023-03-29T05:47:40.273Z,101446.41
2023-03-29T05:53:02.786Z,101457.78
2023-03-29T05:58:26.993Z,101444.63
2023-03-29T06:03:50.737Z,101443.72
2023-03-29T06:09:20.123Z,101445.40
2023-03-29T06:14:59.800Z,101428.76
2023-03-29T06:20:38.460Z,101432.02
2023-03-29T06:26:23.451Z,101434.30
2023-03-29T06:31:52.088Z,101434.04
2023-03-29T06:37:34.312Z,101429.44
2023-03-29T06:48:30.178Z,101438.97
2023-03-29T06:53:52.966Z,101438.47
2023-03-29T06:59:16.446Z,101428.41
2023-03-29T07:04:41.559Z,101412.00
2023-03-29T07:15:45.406Z,101403.67
2023-03-29T07:21:07.911Z,101397.33
2023-03-29T07:26:31.114Z,101399.50
2023-03-29T07:31:55.870Z,101388.16
2023-03-29T07:37:18.537Z,101398.27
2023-03-29T07:42:42.016Z,101387.64
2023-03-29T07:48:06.265Z,101383.22
2023-03-29T07:53:32.458Z,101377.73
2023-03-29T07:58:55.143Z,101373.02
2023-03-29T08:04:18.975Z,101374.40
2023-03-29T08:09:43.517Z,101368.48
2023-03-29T08:15:05.787Z,101363.27
2023-03-29T08:20:31.938Z,101360.16
2023-03-29T08:25:54.453Z,101355.23
2023-03-29T08:31:17.637Z,101359.05
2023-03-29T08:36:41.548Z,101356.48
2023-03-29T08:42:17.949Z,101353.28
2023-03-29T08:48:06.614Z,101345.75
2023-03-29T08:53:40.644Z,101351.22
2023-03-29T08:59:16.656Z,101337.64
2023-03-29T09:04:49.205Z,101340.92
2023-03-29T09:10:12.706Z,101332.55
2023-03-29T09:15:43.337Z,101323.94
2023-03-29T09:21:20.187Z,101334.34
2023-03-29T09:26:48.074Z,101320.41
2023-03-29T09:32:24.405Z,101309.60
2023-03-29T09:37:52.177Z,101311.28
2023-03-29T09:43:19.084Z,101301.13
2023-03-29T09:48:49.165Z,101286.62
2023-03-29T09:54:09.353Z,101284.19
2023-03-29T09:59:32.324Z,101279.18
2023-03-29T10:04:58.858Z,101273.30
2023-03-29T10:10:30.160Z,101276.98
2023-03-29T10:15:55.470Z,101269.97
2023-03-29T10:21:21.169Z,101272.22
2023-03-29T10:26:45.697Z,101267.95
2023-03-29T10:32:31.177Z,101266.92
2023-03-29T10:37:55.931Z,101261.61
2023-03-29T10:43:33.350Z,101251.93
2023-03-29T10:48:59.154Z,101248.95
2023-03-29T10:54:25.140Z,101254.70
2023-03-29T11:00:12.672Z,101236.74
2023-03-29T11:05:47.911Z,101236.28
2023-03-29T11:11:33.047Z,101226.28
2023-03-29T11:17:08.648Z,101229.19
2023-03-29T11:22:47.987Z,101214.61
2023-03-29T11:28:44.233Z,101203.77
2023-03-29T11:34:39.875Z,101185.56
2023-03-29T11:40:25.247Z,101184.92
2023-03-29T11:45:58.022Z,101186.14
2023-03-29T11:51:31.060Z,101175.91
2023-03-29T11:57:13.468Z,101156.07
2023-03-29T12:02:49.547Z,101149.09
2023-03-29T12:08:22.105Z,101139.89
2023-03-29T12:19:56.889Z,101123.62
2023-03-29T12:25:23.443Z,101142.37
2023-03-29T12:31:05.678Z,101126.02
2023-03-29T12:37:06.701Z,101123.66
2023-03-29T12:42:34.988Z,101121.39
2023-03-29T12:47:59.074Z,101121.06
2023-03-29T12:53:29.634Z,101102.38
2023-03-29T12:59:17.868Z,101094.41
2023-03-29T13:05:05.817Z,101091.85
2023-03-29T13:10:47.308Z,101097.96
2023-03-29T13:16:26.724Z,101097.21
2023-03-29T13:22:17.216Z,101092.71
2023-03-29T13:28:24.256Z,101093.59
2023-03-29T13:34:31.752Z,101084.41
2023-03-29T13:39:57.713Z,101068.84
2023-03-29T13:45:39.093Z,101070.79
2023-03-29T13:51:11.312Z,101064.77
2023-03-29T13:57:07.950Z,101070.41
2023-03-29T14:02:51.597Z,101059.41
2023-03-29T14:14:45.165Z,101029.72
2023-03-29T14:20:12.217Z,101036.70
2023-03-29T14:25:44.135Z,101030.79
2023-03-29T14:31:13.377Z,101030.90
2023-03-29T14:36:37.631Z,101027.74
2023-03-29T14:42:05.534Z,101019.12
2023-03-29T14:47:35.228Z,101014.62
2023-03-29T14:52:59.858Z,100999.89
2023-03-29T14:58:31.845Z,100994.14
2023-03-29T15:04:12.192Z,100984.81
2023-03-29T15:09:41.256Z,100975.02
2023-03-29T15:20:45.516Z,100954.67
2023-03-29T15:26:17.416Z,100956.23
2023-03-29T15:31:57.409Z,100951.23
2023-03-29T15:37:21.783Z,100953.34
2023-03-29T15:42:50.968Z,100942.47
2023-03-29T15:48:18.821Z,100939.14
2023-03-29T15:53:42.290Z,100937.77
2023-03-29T15:59:05.729Z,100924.73
2023-03-29T16:04:39.847Z,100915.00
2023-03-29T16:10:02.982Z,100916.97
2023-03-29T16:15:31.563Z,100907.86
2023-03-29T16:21:00.786Z,100916.81
2023-03-29T16:26:27.558Z,100911.99
2023-03-29T16:31:51.415Z,100910.92
2023-03-29T16:37:14.109Z,100911.78
2023-03-29T16:42:36.635Z,100900.12
2023-03-29T16:47:59.208Z,100898.32
2023-03-29T16:53:25.331Z,100905.23
2023-03-29T16:58:48.070Z,100905.81
2023-03-29T17:04:10.526Z,100890.27
2023-03-29T17:09:33.777Z,100893.11
2023-03-29T17:14:56.650Z,100888.92
2023-03-29T17:20:20.570Z,100896.57
2023-03-29T17:25:43.771Z,100884.63
2023-03-29T17:31:07.591Z,100886.16
2023-03-29T17:36:31.731Z,100889.70
2023-03-29T17:41:55.462Z,100893.20
2023-03-29T17:47:19.553Z,100890.88
2023-03-29T17:52:41.995Z,100890.22
2023-03-29T17:58:06.026Z,100883.52
2023-03-29T18:03:28.379Z,100881.14
2023-03-29T18:08:53.093Z,100883.91
2023-03-29T18:14:18.227Z,100897.53
2023-03-29T18:19:41.310Z,100901.16
2023-03-29T18:25:04.708Z,100892.88
2023-03-29T18:30:27.727Z,100891.62
2023-03-29T18:35:52.055Z,100881.95
2023-03-29T18:41:17.082Z,100868.37
2023-03-29T18:46:40.987Z,100861.09
2023-03-29T18:52:05.255Z,100860.86
2023-03-29T18:57:28.194Z,100851.38
2023-03-29T19:02:54.094Z,100842.89
2023-03-29T19:08:16.552Z,100839.61
2023-03-29T19:13:39.193Z,100855.83
2023-03-29T19:19:01.751Z,100861.07
2023-03-29T19:24:24.690Z,100852.02
2023-03-29T19:29:48.455Z,100857.26
2023-03-29T19:35:12.997Z,100852.88
2023-03-29T19:40:35.432Z,100840.56
2023-03-29T19:46:01.583Z,100837.48
2023-03-29T19:51:26.177Z,100840.67
2023-03-29T19:56:51.948Z,100843.77
2023-03-29T20:02:13.627Z,100848.92
2023-03-29T20:07:36.382Z,100841.38
2023-03-29T20:12:58.788Z,100847.64
2023-03-29T20:18:21.237Z,100845.34
2023-03-29T20:23:44.574Z,100838.00
2023-03-29T20:29:07.919Z,100833.62
2023-03-29T20:34:30.387Z,100832.85
2023-03-29T20:39:53.236Z,100832.95
2023-03-29T20:50:50.218Z,100821.89
2023-03-29T20:56:13.428Z,100812.02
2023-03-29T21:01:37.693Z,100814.94
2023-03-29T21:07:13.601Z,100804.63
2023-03-29T21:12:37.576Z,100810.18
2023-03-29T21:18:00.222Z,100813.13
2023-03-29T21:23:22.612Z,100807.88
2023-03-29T21:28:45.270Z,100806.94
2023-03-29T21:34:07.721Z,100806.94
2023-03-29T21:39:32.650Z,100798.16
2023-03-29T21:44:55.062Z,100792.83
2023-03-29T21:50:17.843Z,100784.97
2023-03-29T21:55:41.261Z,100771.54
2023-03-29T22:01:05.716Z,100771.73
2023-03-29T22:06:29.853Z,100775.01
2023-03-29T22:11:54.159Z,100758.63
2023-03-29T22:17:17.555Z,100751.41
2023-03-29T22:22:41.083Z,100745.19
2023-03-29T22:28:04.299Z,100745.37
2023-03-29T22:33:26.664Z,100739.95
2023-03-29T22:38:49.406Z,100734.19
2023-03-29T22:44:12.819Z,100730.33
2023-03-29T22:49:35.100Z,100729.84
2023-03-29T22:54:57.498Z,100728.89
2023-03-29T23:00:21.607Z,100733.03
2023-03-29T23:05:46.457Z,100735.94
2023-03-29T23:11:10.047Z,100743.69
2023-03-29T23:16:33.052Z,100740.16
2023-03-29T23:21:55.482Z,100735.78
2023-03-29T23:27:17.871Z,100735.10
2023-03-29T23:32:40.620Z,100738.45
2023-03-29T23:38:05.407Z,100733.45
2023-03-29T23:43:30.110Z,100727.84
2023-03-29T23:48:53.453Z,100725.55
2023-03-29T23:54:17.560Z,100715.98
2023-03-29T23:59:40.460Z,100709.30
